createdAt,value
2023-05-21T00:00:41.821Z,0.045
2023-05-21T00:01:42.304Z,0.036
2023-05-21T00:02:42.309Z,0.036
2023-05-21T00:03:43.471Z,0.036
2023-05-21T00:04:41.998Z,0.036
2023-05-21T00:05:42.083Z,0.036
2023-05-21T00:06:42.239Z,0.036
2023-05-21T00:07:41.708Z,0.036
2023-05-21T00:08:42.232Z,0.036
2023-05-21T00:09:41.661Z,0.036
2023-05-21T00:10:42.192Z,0.036
2023-05-21T00:11:41.610Z,0.036
2023-05-21T00:12:42.280Z,0.036
2023-05-21T00:13:41.800Z,0.036
2023-05-21T00:14:42.239Z,0.036
2023-05-21T00:15:42.381Z,0.036
2023-05-21T00:16:42.470Z,0.036
2023-05-21T00:17:42.339Z,0.036
2023-05-21T00:18:42.039Z,0.036
2023-05-21T00:19:41.894Z,0.036
2023-05-21T00:20:42.434Z,0.036
2023-05-21T00:22:41.741Z,0.036
2023-05-21T00:23:42.216Z,0.036
2023-05-21T00:25:42.655Z,0.036
2023-05-21T00:26:42.303Z,0.036
2023-05-21T00:27:41.753Z,0.036
2023-05-21T00:28:42.166Z,0.036
2023-05-21T00:29:43.608Z,0.036
2023-05-21T00:30:41.839Z,0.036
2023-05-21T00:31:42.744Z,0.036
2023-05-21T00:32:42.483Z,0.036
2023-05-21T00:33:42.422Z,0.036
2023-05-21T00:34:41.926Z,0.036
2023-05-21T00:35:42.892Z,0.036
2023-05-21T00:36:42.433Z,0.036
2023-05-21T00:37:41.859Z,0.036
2023-05-21T00:38:42.367Z,0.036
2023-05-21T00:39:41.789Z,0.036
2023-05-21T00:40:42.246Z,0.036
2023-05-21T00:41:41.716Z,0.036
2023-05-21T00:42:42.168Z,0.036
2023-05-21T00:43:41.652Z,0.036
2023-05-21T00:44:42.063Z,0.036
2023-05-21T00:45:42.847Z,0.036
2023-05-21T00:47:42.586Z,0.036
2023-05-21T00:48:42.132Z,0.036
2023-05-21T00:49:41.587Z,0.036
2023-05-21T00:50:42.064Z,0.036
2023-05-21T00:51:41.488Z,0.036
2023-05-21T00:52:42.254Z,0.036
2023-05-21T00:53:42.016Z,0.036
2023-05-21T00:54:41.418Z,0.036
2023-05-21T00:55:42.566Z,0.036
2023-05-21T00:56:42.102Z,0.036
2023-05-21T00:58:43.386Z,0.036
2023-05-21T00:59:41.758Z,0.036
2023-05-21T01:00:42.333Z,0.036
2023-05-21T01:01:42.366Z,0.036
2023-05-21T01:02:42.630Z,0.036
2023-05-21T01:03:43.074Z,0.036
2023-05-21T01:04:41.634Z,0.036
2023-05-21T01:05:42.709Z,0.036
2023-05-21T01:07:41.800Z,0.036
2023-05-21T01:08:42.335Z,0.036
2023-05-21T01:09:41.853Z,0.036
2023-05-21T01:10:42.431Z,0.036
2023-05-21T01:11:41.914Z,0.036
2023-05-21T01:12:42.450Z,0.036
2023-05-21T01:13:41.972Z,0.036
2023-05-21T01:14:41.405Z,0.036
2023-05-21T01:15:42.073Z,0.036
2023-05-21T01:16:41.889Z,0.036
2023-05-21T01:17:42.581Z,0.027
2023-05-21T01:18:42.610Z,0.027
2023-05-21T01:20:42.042Z,0.027
2023-05-21T01:21:41.595Z,0.027
2023-05-21T01:22:42.083Z,0.027
2023-05-21T01:23:41.573Z,0.036
2023-05-21T01:24:42.187Z,0.027
2023-05-21T01:25:42.547Z,0.027
2023-05-21T01:26:41.975Z,0.027
2023-05-21T01:28:41.967Z,0.027
2023-05-21T01:29:41.462Z,0.027
2023-05-21T01:30:42.311Z,0.027
2023-05-21T01:31:41.769Z,0.027
2023-05-21T01:32:42.686Z,0.027
2023-05-21T01:33:43.775Z,0.027
2023-05-21T01:34:42.888Z,0.027
2023-05-21T01:35:43.011Z,0.027
2023-05-21T01:36:41.491Z,0.027
2023-05-21T01:37:41.971Z,0.027
2023-05-21T01:38:41.456Z,0.027
2023-05-21T01:39:41.878Z,0.027
2023-05-21T01:40:42.460Z,0.027
2023-05-21T01:41:41.916Z,0.027
2023-05-21T01:42:42.334Z,0.027
2023-05-21T01:43:41.853Z,0.027
2023-05-21T01:44:42.333Z,0.027
2023-05-21T01:45:42.181Z,0.027
2023-05-21T01:46:42.040Z,0.027
2023-05-21T01:47:41.743Z,0.027
2023-05-21T01:48:42.218Z,0.027
2023-05-21T01:50:42.321Z,0.027
2023-05-21T01:51:41.813Z,0.027
2023-05-21T01:52:42.275Z,0.027
2023-05-21T01:53:41.729Z,0.027
2023-05-21T01:54:42.236Z,0.027
2023-05-21T01:55:42.360Z,0.027
2023-05-21T01:56:41.882Z,0.027
2023-05-21T01:57:42.462Z,0.027
2023-05-21T02:00:41.849Z,0.036
2023-05-21T02:01:42.866Z,0.036
2023-05-21T02:02:43.030Z,0.036
2023-05-21T02:03:42.085Z,0.036
2023-05-21T02:04:41.743Z,0.036
2023-05-21T02:05:42.877Z,0.036
2023-05-21T02:06:42.414Z,0.036
2023-05-21T02:08:42.322Z,0.036
2023-05-21T02:09:41.861Z,0.045
2023-05-21T02:10:42.372Z,0.045
2023-05-21T02:11:41.863Z,0.045
2023-05-21T02:12:42.323Z,0.045
2023-05-21T02:13:42.800Z,0.054
2023-05-21T02:14:42.510Z,0.054
2023-05-21T02:15:42.777Z,0.054
2023-05-21T02:17:42.647Z,0.062
2023-05-21T02:18:42.294Z,0.071
2023-05-21T02:19:42.542Z,0.071
2023-05-21T02:20:42.263Z,0.080
2023-05-21T02:21:41.766Z,0.089
2023-05-21T02:22:42.258Z,0.098
2023-05-21T02:23:41.886Z,0.107
2023-05-21T02:24:42.476Z,0.116
2023-05-21T02:25:42.636Z,0.125
2023-05-21T02:26:42.029Z,0.143
2023-05-21T02:28:42.029Z,0.178
2023-05-21T02:29:41.476Z,0.205
2023-05-21T02:30:42.000Z,0.232
2023-05-21T02:31:41.583Z,0.259
2023-05-21T02:32:42.631Z,0.303
2023-05-21T02:33:42.667Z,0.348
2023-05-21T02:34:42.206Z,0.383
2023-05-21T02:35:42.526Z,0.446
2023-05-21T02:36:42.021Z,0.517
2023-05-21T02:38:42.026Z,0.696
2023-05-21T02:39:41.481Z,0.811
2023-05-21T02:40:41.972Z,0.945
2023-05-21T02:41:41.499Z,1.088
2023-05-21T02:42:42.026Z,1.266
2023-05-21T02:44:41.948Z,1.703
2023-05-21T02:45:42.783Z,1.980
2023-05-21T02:47:42.739Z,2.666
2023-05-21T02:48:42.152Z,3.094
2023-05-21T02:49:41.605Z,3.585
2023-05-21T02:50:42.064Z,4.155
2023-05-21T02:51:41.518Z,4.806
2023-05-21T02:52:41.950Z,5.564
2023-05-21T02:53:42.419Z,6.456
2023-05-21T02:54:41.907Z,7.454
2023-05-21T02:55:43.319Z,8.622
2023-05-21T02:56:41.870Z,9.960
2023-05-21T02:57:42.356Z,11.529
2023-05-21T02:58:41.866Z,13.304
2023-05-21T02:59:42.356Z,15.363
2023-05-21T03:00:41.913Z,17.708
2023-05-21T03:01:42.694Z,20.473
2023-05-21T03:02:42.869Z,23.647
2023-05-21T03:03:43.091Z,27.312
2023-05-21T03:04:41.603Z,31.485
2023-05-21T03:05:42.777Z,36.407
2023-05-21T03:06:42.298Z,41.882
2023-05-21T03:09:41.976Z,62.648
2023-05-21T03:11:41.894Z,80.428
2023-05-21T03:12:42.492Z,90.549
2023-05-21T03:13:42.608Z,101.391
2023-05-21T03:14:42.294Z,113.233
2023-05-21T03:15:41.791Z,125.894
2023-05-21T03:16:42.529Z,139.564
2023-05-21T03:17:42.388Z,153.598
2023-05-21T03:18:41.963Z,168.249
2023-05-21T03:19:41.795Z,183.327
2023-05-21T03:20:42.285Z,199.377
2023-05-21T03:21:41.738Z,216.176
2023-05-21T03:22:42.218Z,234.169
2023-05-21T03:23:41.642Z,252.565
2023-05-21T03:24:42.162Z,271.833
2023-05-21T03:25:42.105Z,291.780
2023-05-21T03:26:41.602Z,312.556
2023-05-21T03:27:42.039Z,335.133
2023-05-21T03:28:41.509Z,359.368
2023-05-21T03:29:42.045Z,387.286
2023-05-21T03:30:41.502Z,418.950
2023-05-21T03:31:42.363Z,454.411
2023-05-21T03:32:42.187Z,493.323
2023-05-21T03:33:41.695Z,514.081
2023-05-21T03:34:42.303Z,553.725
2023-05-21T03:35:42.429Z,595.294
2023-05-21T03:36:42.042Z,639.914
2023-05-21T03:38:43.784Z,740.386
2023-05-21T03:39:42.212Z,797.043
2023-05-21T03:40:41.761Z,854.823
2023-05-21T03:41:42.329Z,917.578
2023-05-21T03:42:41.855Z,980.655
2023-05-21T03:43:42.467Z,1046.781
2023-05-21T03:44:42.058Z,1115.154
2023-05-21T03:45:44.267Z,1185.132
2023-05-21T03:46:42.997Z,1259.604
2023-05-21T03:47:41.663Z,1334.236
2023-05-21T03:48:42.253Z,1413.363
2023-05-21T03:49:41.797Z,1494.255
2023-05-21T03:50:42.278Z,1578.839
2023-05-21T03:51:41.752Z,1667.274
2023-05-21T03:52:42.225Z,1761.167
2023-05-21T03:53:41.695Z,1860.035
2023-05-21T03:54:42.325Z,1960.507
2023-05-21T03:55:42.394Z,2067.080
2023-05-21T03:56:42.025Z,2174.615
2023-05-21T03:58:41.954Z,2401.080
2023-05-21T03:59:42.476Z,2524.986
2023-05-21T04:00:41.951Z,2641.348
2023-05-21T04:01:42.508Z,2773.440
2023-05-21T04:02:42.640Z,2899.593
2023-05-21T04:03:47.600Z,3037.302
2023-05-21T04:05:42.668Z,3325.399
2023-05-21T04:06:42.188Z,3472.417
2023-05-21T04:08:42.056Z,3761.638
2023-05-21T04:09:43.511Z,3903.360
2023-05-21T04:10:42.025Z,4044.921
2023-05-21T04:11:41.518Z,4202.211
2023-05-21T04:12:41.998Z,4354.365
2023-05-21T04:15:42.304Z,4738.602
2023-05-21T04:16:42.770Z,4880.484
2023-05-21T04:17:42.520Z,5027.341
2023-05-21T04:18:44.167Z,5176.286
2023-05-21T04:19:42.478Z,5331.329
2023-05-21T04:20:41.929Z,5487.816
2023-05-21T04:21:42.550Z,5659.391
2023-05-21T04:22:42.091Z,5821.496
2023-05-21T04:23:41.793Z,5987.453
2023-05-21T04:24:42.266Z,6167.212
2023-05-21T04:25:41.980Z,6326.589
2023-05-21T04:27:42.154Z,6684.985
2023-05-21T04:28:41.591Z,6857.202
2023-05-21T04:29:42.102Z,7047.715
2023-05-21T04:30:41.861Z,7234.538
2023-05-21T04:31:43.020Z,7428.421
2023-05-21T04:32:41.934Z,7603.045
2023-05-21T04:33:41.424Z,7799.658
2023-05-21T04:34:41.947Z,7988.888
2023-05-21T04:35:43.019Z,8192.883
2023-05-21T04:36:41.430Z,8386.606
2023-05-21T04:37:41.985Z,8599.269
2023-05-21T04:38:41.460Z,8789.462
2023-05-21T04:39:41.886Z,9002.124
2023-05-21T04:40:45.854Z,9207.082
2023-05-21T04:41:42.289Z,9416.374
2023-05-21T04:43:42.479Z,9840.576
2023-05-21T04:44:42.056Z,10053.560
2023-05-21T04:45:42.389Z,10271.679
2023-05-21T04:46:45.623Z,10478.082
2023-05-21T04:48:42.198Z,10927.803
2023-05-21T04:49:41.740Z,11141.429
2023-05-21T04:50:42.223Z,11368.215
2023-05-21T04:51:41.742Z,11602.545
2023-05-21T04:52:42.257Z,11833.344
2023-05-21T04:53:41.680Z,12073.612
2023-05-21T04:54:42.136Z,12323.351
2023-05-21T04:55:42.265Z,12575.336
2023-05-21T04:56:41.753Z,12828.926
2023-05-21T04:57:42.255Z,13096.640
2023-05-21T04:58:41.709Z,13360.822
2023-05-21T04:59:42.193Z,13658.711
2023-05-21T05:00:41.915Z,13907.807
2023-05-21T05:01:42.658Z,14189.805
2023-05-21T05:02:42.406Z,14481.755
2023-05-21T05:03:42.107Z,14780.605
2023-05-21T05:04:41.621Z,15060.196
2023-05-21T05:05:43.040Z,15343.479
2023-05-21T05:06:41.605Z,15645.540
2023-05-21T05:07:42.129Z,15910.044
2023-05-21T05:08:41.597Z,16190.116
2023-05-21T05:09:42.133Z,16432.953
2023-05-21T05:11:42.145Z,16984.912
2023-05-21T05:12:41.630Z,17247.811
2023-05-21T05:13:42.072Z,17497.711
2023-05-21T05:14:41.517Z,17751.139
2023-05-21T05:15:42.689Z,18001.037
2023-05-21T05:17:42.202Z,18544.010
2023-05-21T05:18:41.862Z,18793.748
2023-05-21T05:19:43.006Z,19058.893
2023-05-21T05:20:41.467Z,19335.596
2023-05-21T05:21:41.934Z,19603.148
2023-05-21T05:22:42.519Z,19894.777
2023-05-21T05:23:42.036Z,20185.604
2023-05-21T05:24:41.486Z,20534.049
2023-05-21T05:25:42.864Z,20757.305
2023-05-21T05:26:42.339Z,21069.959
2023-05-21T05:27:44.996Z,21367.846
2023-05-21T05:28:41.544Z,21601.535
2023-05-21T05:29:42.015Z,21764.924
2023-05-21T05:30:41.909Z,21949.338
2023-05-21T05:31:42.879Z,22200.199
2023-05-21T05:32:42.823Z,22451.061
2023-05-21T05:33:42.242Z,22687.316
2023-05-21T05:34:41.631Z,22983.439
2023-05-21T05:35:42.586Z,23260.303
2023-05-21T05:36:42.123Z,23489.336
2023-05-21T05:37:41.812Z,23781.928
2023-05-21T05:38:42.318Z,24076.926
2023-05-21T05:39:41.880Z,24419.273
2023-05-21T05:40:42.500Z,24818.758
2023-05-21T05:41:42.006Z,25254.996
2023-05-21T05:42:41.517Z,25644.689
2023-05-21T05:43:42.010Z,26021.223
2023-05-21T05:44:41.470Z,26513.316
2023-05-21T05:45:42.805Z,27144.723
2023-05-21T05:46:42.967Z,27949.791
2023-05-21T05:47:41.630Z,28550.221
2023-05-21T05:48:42.195Z,28877.320
2023-05-21T05:49:41.746Z,29280.496
2023-05-21T05:50:42.275Z,30488.420
2023-05-21T05:51:41.666Z,32422.123
2023-05-21T05:52:42.129Z,33716.879
2023-05-21T05:53:41.577Z,34863.328
2023-05-21T05:54:42.066Z,36592.875
2023-05-21T05:55:42.532Z,37238.727
2023-05-21T05:57:43.208Z,37670.793
2023-05-21T05:58:41.983Z,39326.031
2023-05-21T05:59:41.353Z,39210.633
2023-05-21T06:00:41.829Z,38134.641
2023-05-21T06:01:42.337Z,36664.941
2023-05-21T06:02:42.714Z,35092.039
2023-05-21T06:03:43.632Z,34425.484
2023-05-21T06:04:42.175Z,34782.277
2023-05-21T06:05:42.918Z,34853.379
2023-05-21T06:07:41.825Z,35855.059
2023-05-21T06:08:44.914Z,36793.824
2023-05-21T06:09:42.410Z,37713.008
2023-05-21T06:11:41.545Z,38276.359
2023-05-21T06:12:42.078Z,40267.844
2023-05-21T06:13:41.523Z,40962.648
2023-05-21T06:14:43.790Z,42086.309
2023-05-21T06:15:42.369Z,41142.891
2023-05-21T06:16:43.503Z,41694.852
2023-05-21T06:17:42.408Z,40682.418
2023-05-21T06:18:41.954Z,39505.309
2023-05-21T06:20:42.267Z,37300.359
2023-05-21T06:21:41.776Z,35886.836
2023-05-21T06:22:42.289Z,35799.043
2023-05-21T06:23:42.041Z,37053.352
2023-05-21T06:24:41.492Z,37192.664
2023-05-21T06:25:42.959Z,38942.113
2023-05-21T06:26:42.423Z,40557.227
2023-05-21T06:28:42.348Z,41459.559
2023-05-21T06:29:41.876Z,39512.371
2023-05-21T06:30:42.285Z,37827.441
2023-05-21T06:31:41.704Z,38241.051
2023-05-21T06:32:43.214Z,39650.082
2023-05-21T06:33:42.386Z,40852.227
2023-05-21T06:34:41.898Z,41519.586
2023-05-21T06:35:42.994Z,41041.133
2023-05-21T06:36:41.431Z,41039.852
2023-05-21T06:37:42.598Z,42471.832
2023-05-21T06:38:42.044Z,44959.098
2023-05-21T06:39:41.514Z,45178.023
2023-05-21T06:40:41.951Z,46443.723
2023-05-21T06:41:42.444Z,45088.141
2023-05-21T06:42:41.911Z,45077.711
2023-05-21T06:43:42.335Z,45348.152
2023-05-21T06:44:41.805Z,44766.340
2023-05-21T06:45:43.665Z,46375.031
2023-05-21T06:46:42.524Z,49107.062
2023-05-21T06:47:42.298Z,48259.141
2023-05-21T06:48:41.758Z,46697.477
2023-05-21T06:49:42.299Z,47498.531
2023-05-21T06:50:41.805Z,47365.156
2023-05-21T06:51:42.266Z,45896.258
2023-05-21T06:52:41.754Z,45188.133
2023-05-21T06:53:42.248Z,46353.203
2023-05-21T06:54:41.766Z,44677.582
2023-05-21T06:55:42.841Z,44766.020
2023-05-21T06:56:42.336Z,48579.176
2023-05-21T06:59:41.887Z,50433.434
2023-05-21T07:00:42.452Z,50764.383
2023-05-21T07:01:42.577Z,52923.270
2023-05-21T07:02:43.110Z,54687.484
2023-05-21T07:03:42.342Z,54340.324
2023-05-21T07:04:41.888Z,54774.316
2023-05-21T07:05:43.270Z,54823.590
2023-05-21T07:06:41.771Z,52454.770
2023-05-21T07:07:42.315Z,50177.598
2023-05-21T07:08:41.804Z,52276.293
2023-05-21T07:09:42.260Z,53083.129
2023-05-21T07:10:41.766Z,58155.410
2023-05-21T07:11:42.269Z,57563.969
2023-05-21T07:12:41.840Z,57075.566
2023-05-21T07:13:42.433Z,56377.711
2023-05-21T07:14:41.880Z,57111.516
2023-05-21T07:16:41.852Z,55491.910
2023-05-21T07:17:42.990Z,54822.465
2023-05-21T07:18:41.601Z,54570.641
2023-05-21T07:19:42.467Z,52800.809
2023-05-21T07:21:42.405Z,48804.680
2023-05-21T07:22:42.174Z,47097.281
2023-05-21T07:23:41.636Z,46993.758
2023-05-21T07:24:42.288Z,47413.145
2023-05-21T07:25:42.137Z,47284.102
2023-05-21T07:26:41.607Z,47003.227
2023-05-21T07:27:42.193Z,46559.766
2023-05-21T07:28:41.746Z,45495.812
2023-05-21T07:29:42.214Z,45702.375
2023-05-21T07:30:41.736Z,46558.320
2023-05-21T07:31:42.910Z,47025.859
2023-05-21T07:32:42.736Z,47022.488
2023-05-21T07:33:42.174Z,47790.000
2023-05-21T07:36:42.217Z,47025.859
2023-05-21T07:37:41.961Z,47474.133
2023-05-21T07:38:41.541Z,48253.684
2023-05-21T07:39:41.982Z,48844.965
2023-05-21T07:40:41.418Z,49908.277
2023-05-21T07:41:42.145Z,50433.594
2023-05-21T07:43:42.127Z,50655.566
2023-05-21T07:44:41.571Z,51213.945
2023-05-21T07:45:42.882Z,52228.625
2023-05-21T07:46:43.030Z,53333.348
2023-05-21T07:47:41.692Z,54889.074
2023-05-21T07:48:44.783Z,53962.668
2023-05-21T07:49:42.211Z,53837.477
2023-05-21T07:50:41.618Z,54276.125
2023-05-21T07:51:42.109Z,56328.918
2023-05-21T07:52:41.768Z,55913.062
2023-05-21T07:53:42.235Z,56159.594
2023-05-21T07:54:41.812Z,56868.199
2023-05-21T07:55:42.960Z,56466.629
2023-05-21T07:56:42.432Z,56541.582
2023-05-21T07:58:42.548Z,54845.898
2023-05-21T07:59:42.065Z,54023.656
2023-05-21T08:00:41.467Z,53268.023
2023-05-21T08:01:41.977Z,54162.008
2023-05-21T08:02:42.302Z,54591.188
2023-05-21T08:03:43.209Z,52780.906
2023-05-21T08:04:45.551Z,50571.305
2023-05-21T08:05:42.493Z,49126.641
2023-05-21T08:06:41.945Z,50490.410
2023-05-21T08:07:42.417Z,51393.703
2023-05-21T08:10:41.904Z,51180.883
2023-05-21T08:11:42.481Z,51312.172
2023-05-21T08:12:41.992Z,52311.926
2023-05-21T08:13:41.476Z,54168.430
2023-05-21T08:14:41.946Z,55268.176
2023-05-21T08:15:42.938Z,56090.094
2023-05-21T08:16:42.942Z,55127.258
2023-05-21T08:17:41.802Z,54319.621
2023-05-21T08:18:42.541Z,54548.652
2023-05-21T08:19:42.663Z,55900.867
2023-05-21T08:20:42.128Z,55716.453
2023-05-21T08:21:41.592Z,55282.137
2023-05-21T08:22:42.069Z,57362.219
2023-05-21T08:23:41.582Z,58283.969
2023-05-21T08:24:42.082Z,59212.301
2023-05-21T08:25:42.402Z,60194.242
2023-05-21T08:26:41.867Z,61519.973
2023-05-21T08:27:42.457Z,61383.387
2023-05-21T08:30:42.006Z,59438.445
2023-05-21T08:32:42.739Z,58845.398
2023-05-21T08:33:42.727Z,58505.141
2023-05-21T08:34:42.140Z,58314.145
2023-05-21T08:35:42.035Z,59189.832
2023-05-21T08:36:41.498Z,58800.137
2023-05-21T08:37:42.070Z,59677.914
2023-05-21T08:38:42.472Z,62379.449
2023-05-21T08:39:41.915Z,60923.875
2023-05-21T08:40:42.417Z,61653.348
2023-05-21T08:41:41.946Z,62720.031
2023-05-21T08:42:49.572Z,62206.750
2023-05-21T08:43:42.059Z,62007.090
2023-05-21T08:45:43.235Z,62082.684
2023-05-21T08:46:41.917Z,60881.984
2023-05-21T08:47:42.818Z,60344.949
2023-05-21T08:48:42.292Z,60653.594
2023-05-21T08:49:41.784Z,62097.449
2023-05-21T08:50:42.373Z,62167.590
2023-05-21T08:51:41.896Z,61593.000
2023-05-21T08:52:42.336Z,62897.062
2023-05-21T08:53:41.836Z,62404.324
2023-05-21T08:54:42.297Z,60881.180
2023-05-21T08:55:42.325Z,61279.863
2023-05-21T08:56:41.744Z,59941.773
2023-05-21T08:57:42.278Z,59716.914
2023-05-21T08:58:41.744Z,60527.762
2023-05-21T08:59:42.223Z,61946.098
2023-05-21T09:00:41.693Z,61649.012
2023-05-21T09:01:42.944Z,61905.652
2023-05-21T09:02:42.865Z,63299.914
2023-05-21T09:03:43.082Z,63829.406
2023-05-21T09:04:42.361Z,63462.344
2023-05-21T09:05:42.520Z,62070.809
2023-05-21T09:06:42.006Z,61084.535
2023-05-21T09:08:41.986Z,63435.699
2023-05-21T09:09:41.534Z,64453.750
2023-05-21T09:10:42.030Z,65915.422
2023-05-21T09:11:41.444Z,67771.289
2023-05-21T09:12:42.010Z,68802.820
2023-05-21T09:13:44.839Z,68571.055
2023-05-21T09:14:42.315Z,68123.586
2023-05-21T09:15:42.552Z,69022.703
2023-05-21T09:17:42.411Z,74110.875
2023-05-21T09:18:42.006Z,77279.148
2023-05-21T09:19:42.266Z,77918.414
2023-05-21T09:20:41.802Z,77245.758
2023-05-21T09:21:42.368Z,75591.328
2023-05-21T09:22:41.839Z,75786.812
2023-05-21T09:23:42.362Z,78665.703
2023-05-21T09:24:45.616Z,80632.148
2023-05-21T09:25:42.179Z,80779.969
2023-05-21T09:27:42.272Z,86080.969
2023-05-21T09:28:41.739Z,88092.031
2023-05-21T09:29:42.226Z,90218.812
2023-05-21T09:30:48.765Z,92153.164
2023-05-21T09:31:42.383Z,85159.859
2023-05-21T09:33:42.183Z,84840.945
2023-05-21T09:34:41.657Z,84562.477
2023-05-21T09:35:44.087Z,86766.141
2023-05-21T09:36:41.778Z,90374.016
2023-05-21T09:37:43.735Z,87535.898
2023-05-21T09:38:42.407Z,85351.008
2023-05-21T09:39:41.924Z,84435.680
2023-05-21T09:40:42.970Z,84099.430
2023-05-21T09:41:41.518Z,82960.688
2023-05-21T09:42:42.020Z,86026.555
2023-05-21T09:43:41.523Z,89308.461
2023-05-21T09:44:41.961Z,91828.953
2023-05-21T09:45:42.907Z,94393.258
2023-05-21T09:46:42.840Z,96625.016
2023-05-21T09:47:42.548Z,101721.211
2023-05-21T09:49:41.797Z,108819.000
2023-05-21T09:50:42.956Z,111084.781
2023-05-21T09:51:42.463Z,111025.234
2023-05-21T09:52:44.018Z,110019.219
2023-05-21T09:53:41.502Z,108601.039
2023-05-21T09:54:41.990Z,106618.383
2023-05-21T09:55:41.417Z,100572.992
2023-05-21T09:56:41.975Z,100730.766
2023-05-21T09:57:42.463Z,97209.070
2023-05-21T09:58:42.046Z,91496.555
2023-05-21T09:59:41.554Z,89835.539
2023-05-21T10:00:42.481Z,87576.984
2023-05-21T10:01:42.226Z,83921.922
2023-05-21T10:02:42.033Z,77900.281
2023-05-21T10:03:41.522Z,71358.617
2023-05-21T10:04:42.339Z,70627.062
2023-05-21T10:05:41.947Z,70468.328
2023-05-21T10:06:42.577Z,68351.008
2023-05-21T10:07:42.377Z,66288.906
2023-05-21T10:10:42.473Z,60629.676
2023-05-21T10:12:41.831Z,57699.270
2023-05-21T10:13:42.288Z,57736.984
2023-05-21T10:14:41.780Z,58093.777
2023-05-21T10:15:42.306Z,58636.590
2023-05-21T10:16:42.101Z,58519.746
2023-05-21T10:17:41.879Z,58789.062
2023-05-21T10:18:42.466Z,59076.520
2023-05-21T10:19:42.344Z,59845.797
2023-05-21T10:20:42.460Z,59900.203
2023-05-21T10:21:41.911Z,59726.703
2023-05-21T10:22:42.390Z,59902.293
2023-05-21T10:23:41.811Z,59969.863
2023-05-21T10:24:42.281Z,59752.707
2023-05-21T10:25:41.740Z,60715.707
2023-05-21T10:26:42.286Z,62820.824
2023-05-21T10:27:44.647Z,63468.602
2023-05-21T10:28:42.165Z,63246.789
2023-05-21T10:29:41.661Z,63521.887
2023-05-21T10:30:42.866Z,64152.332
2023-05-21T10:32:43.141Z,64116.859
2023-05-21T10:33:42.220Z,64063.895
2023-05-21T10:34:41.814Z,63892.160
2023-05-21T10:35:42.860Z,64038.859
2023-05-21T10:36:42.364Z,65600.039
2023-05-21T10:39:41.894Z,65762.625
2023-05-21T10:40:43.053Z,66392.266
2023-05-21T10:41:41.536Z,67626.992
2023-05-21T10:42:41.964Z,67438.086
2023-05-21T10:43:41.437Z,68269.477
2023-05-21T10:44:41.970Z,68800.570
2023-05-21T10:45:42.787Z,68992.047
2023-05-21T10:46:42.317Z,68194.203
2023-05-21T10:47:41.888Z,69172.930
2023-05-21T10:48:42.359Z,70582.445
2023-05-21T10:49:41.834Z,72324.508
2023-05-21T10:50:42.876Z,72737.961
2023-05-21T10:51:42.461Z,72767.969
2023-05-21T10:53:42.583Z,73595.188
2023-05-21T10:54:42.108Z,73931.758
2023-05-21T10:55:41.630Z,74775.188
2023-05-21T10:56:42.298Z,75916.500
2023-05-21T10:57:41.723Z,76633.133
2023-05-21T10:58:45.658Z,76938.562
2023-05-21T10:59:42.174Z,77578.477
2023-05-21T11:00:41.874Z,77723.891
2023-05-21T11:01:42.903Z,76885.438
2023-05-21T11:02:42.208Z,74974.203
2023-05-21T11:03:46.351Z,72690.609
2023-05-21T11:04:41.838Z,71158.961
2023-05-21T11:05:42.386Z,70454.203
2023-05-21T11:07:42.314Z,69743.828
2023-05-21T11:08:41.778Z,69219.641
2023-05-21T11:09:42.267Z,68404.141
2023-05-21T11:10:42.769Z,68431.586
2023-05-21T11:11:42.184Z,67866.461
2023-05-21T11:12:41.667Z,67324.453
2023-05-21T11:13:42.191Z,67709.336
2023-05-21T11:14:42.211Z,68026.320
2023-05-21T11:15:41.747Z,67871.922
2023-05-21T11:16:42.333Z,68576.352
2023-05-21T11:19:46.356Z,64875.543
2023-05-21T11:20:42.014Z,64055.391
2023-05-21T11:21:41.474Z,63483.527
2023-05-21T11:22:41.965Z,62787.762
2023-05-21T11:23:41.481Z,61968.730
2023-05-21T11:24:41.924Z,61016.484
2023-05-21T11:25:42.371Z,60346.555
2023-05-21T11:26:41.837Z,59624.305
2023-05-21T11:27:42.489Z,58858.559
2023-05-21T11:28:41.943Z,58178.684
2023-05-21T11:29:42.396Z,57768.445
2023-05-21T11:30:45.207Z,57215.039
2023-05-21T11:32:42.130Z,55801.035
2023-05-21T11:33:41.557Z,54677.055
2023-05-21T11:34:42.055Z,56139.367
2023-05-21T11:35:41.491Z,58269.523
2023-05-21T11:36:45.163Z,57628.168
2023-05-21T11:37:41.865Z,58098.754
2023-05-21T11:40:42.258Z,61617.234
2023-05-21T11:41:41.756Z,63583.359
2023-05-21T11:42:42.195Z,62467.082
2023-05-21T11:45:41.757Z,69703.227
2023-05-21T11:46:42.595Z,63939.668
2023-05-21T11:47:42.599Z,70872.789
2023-05-21T11:48:44.613Z,71027.828
2023-05-21T11:49:42.117Z,70691.102
2023-05-21T11:50:42.757Z,71593.914
2023-05-21T11:52:42.210Z,74290.156
2023-05-21T11:53:43.525Z,74027.094
2023-05-21T11:54:41.773Z,74617.891
2023-05-21T11:55:42.259Z,76544.375
2023-05-21T11:56:41.752Z,78568.766
2023-05-21T11:57:42.267Z,80921.211
2023-05-21T11:58:41.974Z,80474.859
2023-05-21T11:59:41.480Z,79990.312
2023-05-21T12:00:42.633Z,76241.031
2023-05-21T12:01:42.680Z,70701.055
2023-05-21T12:02:42.916Z,69584.297
2023-05-21T12:03:43.746Z,72186.641
2023-05-21T12:04:42.364Z,73680.094
2023-05-21T12:05:42.046Z,74060.320
2023-05-21T12:06:41.726Z,70923.023
2023-05-21T12:07:42.475Z,67707.086
2023-05-21T12:08:41.964Z,71993.562
2023-05-21T12:09:42.459Z,79962.867
2023-05-21T12:10:43.423Z,85405.742
2023-05-21T12:13:01.989Z,94952.117
2023-05-21T12:15:42.154Z,112133.008
2023-05-21T12:16:41.843Z,114193.023
2023-05-21T12:17:42.680Z,120283.352
2023-05-21T12:18:42.230Z,117446.195
2023-05-21T12:19:41.834Z,119481.500
2023-05-21T12:20:42.780Z,120738.695
2023-05-21T12:21:42.277Z,124367.602
2023-05-21T12:22:41.778Z,129120.648
2023-05-21T12:23:42.249Z,132138.531
2023-05-21T12:24:41.761Z,129611.133
2023-05-21T12:25:42.357Z,123531.875
2023-05-21T12:26:41.888Z,125839.547
2023-05-21T12:27:44.441Z,131471.656
2023-05-21T12:28:41.962Z,131390.281
2023-05-21T12:29:42.411Z,130648.445
2023-05-21T12:30:42.778Z,129564.266
2023-05-21T12:32:42.488Z,126930.625
2023-05-21T12:33:42.014Z,50746.730
2023-05-21T12:34:41.547Z,106200.281
2023-05-21T12:35:42.690Z,100138.516
2023-05-21T12:36:42.156Z,45714.254
2023-05-21T12:37:41.570Z,41974.441
2023-05-21T12:38:42.094Z,40656.414
2023-05-21T12:39:41.598Z,44896.664
2023-05-21T12:40:43.702Z,45254.418
2023-05-21T12:42:41.863Z,41249.141
2023-05-21T12:43:42.406Z,125884.805
2023-05-21T12:44:43.712Z,131708.391
2023-05-21T12:45:42.207Z,38487.578
2023-05-21T12:46:42.222Z,38121.641
2023-05-21T12:47:42.153Z,35479.809
2023-05-21T12:48:41.585Z,36004.645
2023-05-21T12:49:41.959Z,40608.586
2023-05-21T12:50:43.545Z,127435.234
2023-05-21T12:51:42.035Z,42598.145
2023-05-21T12:52:41.562Z,42054.852
2023-05-21T12:53:42.085Z,43349.926
2023-05-21T12:54:41.506Z,44745.152
2023-05-21T12:55:42.264Z,52483.020
2023-05-21T12:56:41.746Z,51146.055
2023-05-21T12:57:42.302Z,54070.844
2023-05-21T12:58:41.757Z,41802.227
2023-05-21T12:59:42.236Z,38168.184
2023-05-21T13:00:43.027Z,38684.672
2023-05-21T13:01:41.694Z,61013.434